createdAt,value
2023-05-09T00:03:00.091Z,101274.42
2023-05-09T00:06:01.940Z,101275.39
2023-05-09T00:09:01.868Z,101275.58
2023-05-09T00:12:01.911Z,101276.68
2023-05-09T00:15:02.981Z,101272.79
2023-05-09T00:18:02.957Z,101273.50
2023-05-09T00:21:02.910Z,101272.09
2023-05-09T00:24:02.879Z,101272.56
2023-05-09T00:27:02.869Z,101274.21
2023-05-09T00:30:02.921Z,101276.70
2023-05-09T00:33:03.959Z,101276.35
2023-05-09T00:36:03.897Z,101275.90
2023-05-09T00:39:04.204Z,101269.88
2023-05-09T00:42:03.880Z,101271.27
2023-05-09T00:45:03.988Z,101270.73
2023-05-09T00:48:03.978Z,101270.10
2023-05-09T00:51:03.971Z,101272.42
2023-05-09T00:54:03.939Z,101273.77
2023-05-09T00:57:03.962Z,101273.13
2023-05-09T01:00:03.983Z,101274.46
2023-05-09T01:03:06.116Z,101271.02
2023-05-09T01:06:29.949Z,101271.12
2023-05-09T01:09:35.007Z,101269.36
2023-05-09T01:12:48.027Z,101266.55
2023-05-09T01:16:02.040Z,101268.11
2023-05-09T01:19:04.007Z,101269.20
2023-05-09T01:22:03.981Z,101269.70
2023-05-09T01:25:16.230Z,101267.31
2023-05-09T01:28:36.191Z,101272.40
2023-05-09T01:31:36.178Z,101271.46
2023-05-09T01:34:36.004Z,101272.59
2023-05-09T01:37:37.014Z,101277.20
2023-05-09T01:40:37.056Z,101272.00
2023-05-09T01:43:38.073Z,101267.52
2023-05-09T01:46:38.011Z,101271.90
2023-05-09T01:49:38.049Z,101270.29
2023-05-09T01:52:38.113Z,101272.21
2023-05-09T01:55:39.068Z,101268.84
2023-05-09T01:58:39.066Z,101267.21
2023-05-09T02:01:39.055Z,101272.46
2023-05-09T02:04:39.066Z,101269.65
2023-05-09T02:07:39.071Z,101268.46
2023-05-09T02:10:40.089Z,101270.59
2023-05-09T02:13:41.075Z,101271.94
2023-05-09T02:16:41.197Z,101269.69
2023-05-09T02:19:41.108Z,101269.77
2023-05-09T02:22:41.125Z,101272.60
2023-05-09T02:25:41.109Z,101270.65
2023-05-09T02:28:41.123Z,101267.23
2023-05-09T02:31:41.385Z,101276.27
2023-05-09T02:34:42.121Z,101274.66
2023-05-09T02:37:42.134Z,101273.40
2023-05-09T02:40:43.161Z,101278.96
2023-05-09T02:43:45.353Z,101280.05
2023-05-09T02:46:46.184Z,101276.62
2023-05-09T02:49:46.182Z,101278.75
2023-05-09T02:52:47.113Z,101277.48
2023-05-09T02:55:47.321Z,101280.12
2023-05-09T02:58:40.251Z,101275.66
2023-05-09T03:01:43.572Z,101278.30
2023-05-09T03:04:44.354Z,101280.70
2023-05-09T03:07:45.219Z,101282.98
2023-05-09T03:10:45.169Z,101284.33
2023-05-09T03:13:45.190Z,101288.00
2023-05-09T03:16:47.209Z,101290.25
2023-05-09T03:20:03.225Z,101292.44
2023-05-09T03:23:04.244Z,101293.30
2023-05-09T03:26:06.460Z,101299.55
2023-05-09T03:29:07.233Z,101299.71
2023-05-09T03:32:07.219Z,101302.42
2023-05-09T03:35:07.317Z,101299.61
2023-05-09T03:38:07.299Z,101302.71
2023-05-09T03:41:07.273Z,101306.20
2023-05-09T03:44:07.334Z,101310.00
2023-05-09T03:47:07.384Z,101309.32
2023-05-09T03:50:07.338Z,101315.96
2023-05-09T03:53:07.286Z,101317.08
2023-05-09T03:56:08.260Z,101313.13
2023-05-09T03:59:12.341Z,101312.97
2023-05-09T04:02:12.381Z,101313.65
2023-05-09T04:05:12.600Z,101313.82
2023-05-09T04:08:14.283Z,101310.20
2023-05-09T04:11:14.400Z,101315.52
2023-05-09T04:14:14.425Z,101312.03
2023-05-09T04:17:21.288Z,101315.16
2023-05-09T04:20:21.348Z,101316.98
2023-05-09T04:23:21.354Z,101322.31
2023-05-09T04:26:24.300Z,101319.29
2023-05-09T04:29:24.330Z,101321.27
2023-05-09T04:32:27.366Z,101323.92
2023-05-09T04:35:27.334Z,101325.20
2023-05-09T04:38:27.306Z,101321.30
2023-05-09T04:41:27.361Z,101321.73
2023-05-09T04:44:27.715Z,101323.70
2023-05-09T04:47:28.401Z,101328.59
2023-05-09T04:50:28.349Z,101326.30
2023-05-09T04:53:30.466Z,101325.96
2023-05-09T04:56:30.440Z,101325.66
2023-05-09T04:59:30.473Z,101322.75
2023-05-09T05:02:31.394Z,101324.30
2023-05-09T05:05:32.949Z,101325.45
2023-05-09T05:08:35.394Z,101317.92
2023-05-09T05:11:35.383Z,101319.36
2023-05-09T05:14:35.466Z,101325.70
2023-05-09T05:17:37.408Z,101323.52
2023-05-09T05:20:37.399Z,101321.48
2023-05-09T05:23:37.492Z,101325.24
2023-05-09T05:26:38.561Z,101322.95
2023-05-09T05:29:38.414Z,101324.30
2023-05-09T05:32:38.504Z,101323.79
2023-05-09T05:35:39.439Z,101319.25
2023-05-09T05:38:39.494Z,101319.92
2023-05-09T05:41:39.539Z,101319.30
2023-05-09T05:44:39.819Z,101314.79
2023-05-09T05:47:40.509Z,101314.86
2023-05-09T05:50:42.618Z,101313.23
2023-05-09T05:53:43.428Z,101314.80
2023-05-09T05:56:43.513Z,101315.68
2023-05-09T05:59:43.453Z,101313.39
2023-05-09T06:02:43.768Z,101316.45
2023-05-09T06:05:49.528Z,101317.59
2023-05-09T06:08:49.426Z,101318.77
2023-05-09T06:11:52.456Z,101317.15
2023-05-09T06:14:53.563Z,101319.42
2023-05-09T06:17:54.545Z,101317.48
2023-05-09T06:20:56.616Z,101313.07
2023-05-09T06:26:59.891Z,101309.20
2023-05-09T06:30:04.182Z,101306.62
2023-05-09T06:33:08.549Z,101305.30
2023-05-09T06:36:08.531Z,101304.98
2023-05-09T06:39:08.669Z,101299.98
2023-05-09T06:42:09.516Z,101294.16
2023-05-09T06:45:10.575Z,101293.08
2023-05-09T06:48:11.491Z,101286.17
2023-05-09T06:51:11.489Z,101277.54
2023-05-09T06:54:11.554Z,101272.81
2023-05-09T06:57:12.572Z,101277.36
2023-05-09T07:00:12.518Z,101270.62
2023-05-09T07:03:16.475Z,101278.79
2023-05-09T07:06:16.645Z,101278.21
2023-05-09T07:09:16.576Z,101274.20
2023-05-09T07:12:16.567Z,101270.78
2023-05-09T07:15:28.766Z,101271.13
2023-05-09T07:18:38.587Z,101264.14
2023-05-09T07:21:40.595Z,101270.75
2023-05-09T07:24:40.747Z,101257.15
2023-05-09T07:27:40.569Z,101256.76
2023-05-09T07:30:41.572Z,101254.55
2023-05-09T07:33:41.691Z,101253.81
2023-05-09T07:36:43.610Z,101244.23
2023-05-09T07:39:45.885Z,101241.27
2023-05-09T07:42:46.812Z,101237.96
2023-05-09T07:45:46.872Z,101240.48
2023-05-09T07:48:46.588Z,101231.62
2023-05-09T07:51:47.631Z,101226.69
2023-05-09T07:54:47.617Z,101232.38
2023-05-09T07:57:47.845Z,101235.34
2023-05-09T08:00:50.194Z,101235.35
2023-05-09T08:03:51.674Z,101232.08
2023-05-09T08:06:52.734Z,101230.11
2023-05-09T08:09:55.689Z,101228.08
2023-05-09T08:12:56.670Z,101225.83
2023-05-09T08:15:56.765Z,101223.34
2023-05-09T08:18:58.668Z,101225.36
2023-05-09T08:22:12.818Z,101223.84
2023-05-09T08:25:24.729Z,101218.77
2023-05-09T08:28:27.702Z,101221.61
2023-05-09T08:31:28.681Z,101222.27
2023-05-09T08:34:29.754Z,101223.74
2023-05-09T08:37:30.762Z,101229.41
2023-05-09T08:40:32.573Z,101222.62
2023-05-09T08:43:37.896Z,101219.12
2023-05-09T08:46:50.311Z,101205.46
2023-05-09T08:49:52.785Z,101208.81
2023-05-09T08:52:53.743Z,101198.67
2023-05-09T08:55:53.963Z,101196.53
2023-05-09T08:58:53.835Z,101205.67
2023-05-09T09:01:53.851Z,101205.48
2023-05-09T09:04:56.857Z,101201.39
2023-05-09T09:08:01.815Z,101204.83
2023-05-09T09:11:02.790Z,101203.58
2023-05-09T09:14:05.775Z,101197.45
2023-05-09T09:17:07.932Z,101187.48
2023-05-09T09:20:17.015Z,101191.45
2023-05-09T09:23:17.738Z,101186.69
2023-05-09T09:26:17.915Z,101172.45
2023-05-09T09:29:19.955Z,101171.89
2023-05-09T09:32:22.193Z,101174.92
2023-05-09T09:35:23.836Z,101173.03
2023-05-09T09:38:31.049Z,101170.46
2023-05-09T09:41:35.258Z,101170.52
2023-05-09T09:44:36.944Z,101168.99
2023-05-09T09:47:44.901Z,101168.73
2023-05-09T09:50:47.990Z,101168.80
2023-05-09T09:53:56.940Z,101172.27
2023-05-09T09:57:49.729Z,101168.49
2023-05-09T10:00:32.363Z,101167.62
2023-05-09T10:03:34.871Z,101174.49
2023-05-09T10:06:36.129Z,101168.88
2023-05-09T10:09:36.918Z,101171.10
2023-05-09T10:12:40.111Z,101173.82
2023-05-09T10:15:52.437Z,101174.98
2023-05-09T10:18:55.364Z,101172.89
2023-05-09T10:22:04.842Z,101163.27
2023-05-09T10:25:16.157Z,101153.88
2023-05-09T10:28:17.020Z,101152.81
2023-05-09T10:31:18.986Z,101156.10
2023-05-09T10:34:18.888Z,101158.59
2023-05-09T10:37:18.989Z,101152.10
2023-05-09T10:40:22.071Z,101154.06
2023-05-09T10:43:27.218Z,101154.31
2023-05-09T10:46:29.975Z,101160.29
2023-05-09T10:49:31.202Z,101153.48
2023-05-09T10:52:34.126Z,101156.53
2023-05-09T10:55:38.316Z,101154.23
2023-05-09T10:58:42.223Z,101155.38
2023-05-09T11:01:43.026Z,101147.69
2023-05-09T11:04:43.199Z,101141.55
2023-05-09T11:07:53.085Z,101138.63
2023-05-09T11:10:57.159Z,101135.90
2023-05-09T11:13:59.829Z,101144.02
2023-05-09T11:17:12.014Z,101141.07
2023-05-09T11:20:18.060Z,101133.58
2023-05-09T11:23:22.989Z,101129.17
2023-05-09T11:26:32.085Z,101135.63
2023-05-09T11:29:34.616Z,101131.32
2023-05-09T11:32:40.160Z,101133.02
2023-05-09T11:35:48.053Z,101125.80
2023-05-09T11:38:56.149Z,101128.84
2023-05-09T11:41:59.004Z,101125.48
2023-05-09T11:45:02.640Z,101123.06
2023-05-09T11:48:07.208Z,101120.46
2023-05-09T11:51:07.053Z,101115.35
2023-05-09T11:54:07.264Z,101113.91
2023-05-09T11:57:08.172Z,101109.80
2023-05-09T12:00:08.083Z,101112.68
2023-05-09T12:03:08.209Z,101107.10
2023-05-09T12:06:08.259Z,101107.04
2023-05-09T12:09:09.074Z,101101.27
2023-05-09T12:12:09.036Z,101090.36
2023-05-09T12:15:09.063Z,101090.49
2023-05-09T12:18:15.236Z,101084.89
2023-05-09T12:21:15.254Z,101088.00
2023-05-09T12:24:15.101Z,101087.14
2023-05-09T12:31:33.247Z,101072.84
2023-05-09T12:46:22.261Z,101068.02
2023-05-09T12:49:32.114Z,101058.20
2023-05-09T12:56:25.052Z,101060.70
2023-05-09T12:59:45.240Z,101064.53
2023-05-09T13:10:10.622Z,101059.75
2023-05-09T13:13:12.186Z,101058.80
2023-05-09T13:16:14.209Z,101055.21
2023-05-09T13:19:16.252Z,101054.95
2023-05-09T13:22:18.218Z,101053.39
2023-05-09T13:25:18.181Z,101053.27
2023-05-09T13:28:18.324Z,101052.24
2023-05-09T13:31:20.323Z,101055.63
2023-05-09T13:34:30.327Z,101053.55
2023-05-09T13:37:37.996Z,101050.89
2023-05-09T13:40:44.418Z,101052.38
2023-05-09T13:43:49.489Z,101051.20
2023-05-09T13:46:57.663Z,101047.25
2023-05-09T13:50:06.993Z,101046.49
2023-05-09T13:53:27.341Z,101046.18
2023-05-09T13:56:27.404Z,101046.73
2023-05-09T13:59:27.269Z,101047.48
2023-05-09T14:02:27.274Z,101044.79
2023-05-09T14:05:27.273Z,101043.83
2023-05-09T14:08:27.357Z,101039.95
2023-05-09T14:11:28.371Z,101038.19
2023-05-09T14:14:29.455Z,101044.49
2023-05-09T14:17:29.365Z,101037.83
2023-05-09T14:20:30.333Z,101042.80
2023-05-09T14:23:30.407Z,101043.71
2023-05-09T14:26:32.340Z,101042.99
2023-05-09T14:29:32.385Z,101043.77
2023-05-09T14:32:32.532Z,101039.16
2023-05-09T14:35:32.441Z,101039.98
2023-05-09T14:38:33.436Z,101042.98
2023-05-09T14:41:33.382Z,101040.85
2023-05-09T14:44:33.599Z,101040.92
2023-05-09T14:47:33.364Z,101039.64
2023-05-09T14:50:34.368Z,101033.15
2023-05-09T14:53:34.495Z,101032.49
2023-05-09T14:56:34.363Z,101029.32
2023-05-09T14:59:36.692Z,101029.13
2023-05-09T15:02:37.437Z,101020.24
2023-05-09T15:05:37.448Z,101024.52
2023-05-09T15:08:38.392Z,101029.21
2023-05-09T15:11:47.637Z,101030.06
2023-05-09T15:14:49.356Z,101028.54
2023-05-09T15:17:50.410Z,101026.29
2023-05-09T15:20:50.416Z,101027.88
2023-05-09T15:23:50.462Z,101023.64
2023-05-09T15:26:50.648Z,101024.95
2023-05-09T15:29:50.771Z,101023.19
2023-05-09T15:32:52.465Z,101024.34
2023-05-09T15:35:54.429Z,101027.27
2023-05-09T15:38:55.398Z,101026.98
2023-05-09T15:41:56.555Z,101034.52
2023-05-09T15:44:56.533Z,101031.91
2023-05-09T15:47:57.542Z,101028.48
2023-05-09T15:50:58.543Z,101028.19
2023-05-09T15:53:58.432Z,101028.55
2023-05-09T15:56:58.484Z,101024.34
2023-05-09T16:00:01.536Z,101023.28
2023-05-09T16:03:06.509Z,101018.60
2023-05-09T16:06:06.492Z,101021.35
2023-05-09T16:09:08.571Z,101020.01
2023-05-09T16:12:08.497Z,101017.37
2023-05-09T16:15:08.489Z,101015.91
2023-05-09T16:18:08.619Z,101015.19
2023-05-09T16:21:08.576Z,101014.83
2023-05-09T16:24:09.520Z,101014.64
2023-05-09T16:27:09.533Z,101013.09
2023-05-09T16:30:09.814Z,101015.45
2023-05-09T16:33:09.580Z,101011.67
2023-05-09T16:36:09.518Z,101014.48
2023-05-09T16:39:09.566Z,101010.48
2023-05-09T16:42:11.680Z,101011.48
2023-05-09T16:45:11.503Z,101010.81
2023-05-09T16:48:11.600Z,101012.33
2023-05-09T16:51:11.565Z,101016.15
2023-05-09T16:54:11.548Z,101016.65
2023-05-09T16:57:11.584Z,101020.88
2023-05-09T17:00:13.776Z,101023.70
2023-05-09T17:03:14.550Z,101023.73
2023-05-09T17:06:14.610Z,101024.78
2023-05-09T17:09:14.707Z,101022.80
2023-05-09T17:12:16.546Z,101024.36
2023-05-09T17:15:17.630Z,101027.27
2023-05-09T17:18:29.141Z,101024.83
2023-05-09T17:21:43.061Z,101027.00
2023-05-09T17:24:45.032Z,101028.98
2023-05-09T17:27:47.771Z,101028.48
2023-05-09T17:30:48.676Z,101028.77
2023-05-09T17:33:49.651Z,101036.65
2023-05-09T17:36:50.755Z,101034.41
2023-05-09T17:39:50.811Z,101036.61
2023-05-09T17:42:52.028Z,101035.14
2023-05-09T17:45:52.764Z,101038.11
2023-05-09T17:48:53.678Z,101035.02
2023-05-09T17:51:53.719Z,101031.17
2023-05-09T17:54:53.695Z,101033.98
2023-05-09T17:57:54.729Z,101035.20
2023-05-09T18:00:54.665Z,101034.20
2023-05-09T18:03:55.898Z,101035.01
2023-05-09T18:06:56.837Z,101032.80
2023-05-09T18:09:59.712Z,101031.31
2023-05-09T18:13:04.537Z,101035.02
2023-05-09T18:16:05.911Z,101031.02
2023-05-09T18:19:05.728Z,101034.77
2023-05-09T18:22:06.637Z,101033.27
2023-05-09T18:25:07.052Z,101031.47
2023-05-09T18:28:06.783Z,101033.45
2023-05-09T18:31:12.752Z,101031.32
2023-05-09T18:34:13.803Z,101032.02
2023-05-09T18:37:15.766Z,101031.80
2023-05-09T18:40:20.697Z,101033.38
2023-05-09T18:43:21.773Z,101036.90
2023-05-09T18:46:26.750Z,101036.35
2023-05-09T18:49:30.821Z,101034.45
2023-05-09T18:52:30.811Z,101035.50
2023-05-09T18:55:30.740Z,101038.08
2023-05-09T18:58:32.398Z,101036.73
2023-05-09T19:01:35.755Z,101036.18
2023-05-09T19:04:36.929Z,101031.83
2023-05-09T19:07:37.859Z,101031.73
2023-05-09T19:10:37.826Z,101030.63
2023-05-09T19:13:42.871Z,101028.40
2023-05-09T19:16:42.769Z,101027.67
2023-05-09T19:19:42.907Z,101029.03
2023-05-09T19:22:35.889Z,101027.52
2023-05-09T19:25:39.802Z,101028.39
2023-05-09T19:28:40.833Z,101026.45
2023-05-09T19:31:40.925Z,101021.39
2023-05-09T19:34:40.778Z,101026.04
2023-05-09T19:37:40.861Z,101025.70
2023-05-09T19:40:44.222Z,101024.93
2023-05-09T19:43:43.910Z,101023.85
2023-05-09T19:46:51.207Z,101028.08
2023-05-09T19:49:52.884Z,101023.80
2023-05-09T19:52:53.884Z,101022.11
2023-05-09T19:55:57.239Z,101020.14
2023-05-09T19:58:57.138Z,101023.19
2023-05-09T20:01:58.207Z,101022.95
2023-05-09T20:05:00.059Z,101025.39
2023-05-09T20:08:01.967Z,101021.42
2023-05-09T20:11:01.966Z,101022.08
2023-05-09T20:14:04.140Z,101021.86
2023-05-09T20:17:04.937Z,101015.97
2023-05-09T20:20:04.972Z,101014.27
2023-05-09T20:23:04.941Z,101015.11
2023-05-09T20:26:04.960Z,101012.17
2023-05-09T20:29:06.919Z,101009.63
2023-05-09T20:32:07.012Z,101007.89
2023-05-09T20:35:06.925Z,101007.61
2023-05-09T20:38:10.902Z,101005.88
2023-05-09T20:41:10.900Z,101010.04
2023-05-09T20:44:10.908Z,101009.88
2023-05-09T20:47:11.968Z,101007.92
2023-05-09T20:50:12.018Z,101006.13
2023-05-09T20:53:12.184Z,101005.11
2023-05-09T20:56:11.928Z,101000.39
2023-05-09T20:59:11.970Z,100995.50
2023-05-09T21:02:13.060Z,101001.98
2023-05-09T21:05:12.933Z,100999.59
2023-05-09T21:08:14.122Z,100998.78
2023-05-09T21:11:16.019Z,101001.23
2023-05-09T21:14:18.080Z,101001.23
2023-05-09T21:17:22.018Z,101002.42
2023-05-09T21:20:23.114Z,101001.54
2023-05-09T21:23:27.021Z,101004.09
2023-05-09T21:26:30.971Z,101000.52
2023-05-09T21:29:31.062Z,100999.20
2023-05-09T21:32:34.061Z,100998.91
2023-05-09T21:35:34.007Z,100991.48
2023-05-09T21:38:35.080Z,100989.63
2023-05-09T21:41:35.019Z,100983.60
2023-05-09T21:44:36.999Z,100981.60
2023-05-09T21:47:37.130Z,100980.79
2023-05-09T21:50:40.223Z,100973.13
2023-05-09T21:53:45.070Z,100973.63
2023-05-09T21:56:46.015Z,100974.17
2023-05-09T21:59:46.060Z,100971.23
2023-05-09T22:02:51.181Z,100966.94
2023-05-09T22:05:52.137Z,100963.52
2023-05-09T22:08:54.426Z,100965.61
2023-05-09T22:11:55.030Z,100966.56
2023-05-09T22:14:57.140Z,100963.97
2023-05-09T22:17:58.123Z,100969.77
2023-05-09T22:20:59.109Z,100967.94
2023-05-09T22:23:59.093Z,100965.44
2023-05-09T22:27:01.136Z,100965.27
2023-05-09T22:30:01.070Z,100963.03
2023-05-09T22:33:06.305Z,100960.03
2023-05-09T22:36:08.086Z,100962.28
2023-05-09T22:39:09.109Z,100962.88
2023-05-09T22:42:10.270Z,100961.98
2023-05-09T22:45:10.085Z,100955.98
2023-05-09T22:48:11.294Z,100955.47
2023-05-09T22:51:13.369Z,100950.01
2023-05-09T22:54:13.217Z,100945.48
2023-05-09T22:57:13.144Z,100941.74
2023-05-09T23:00:16.134Z,100939.93
2023-05-09T23:03:16.257Z,100941.98
2023-05-09T23:06:16.193Z,100941.19
2023-05-09T23:09:18.228Z,100938.91
2023-05-09T23:12:19.494Z,100939.06
2023-05-09T23:15:20.206Z,100936.36
2023-05-09T23:18:20.245Z,100936.36
2023-05-09T23:21:27.346Z,100936.00
2023-05-09T23:24:27.208Z,100936.59
2023-05-09T23:27:27.411Z,100931.27
2023-05-09T23:30:27.255Z,100930.66
2023-05-09T23:33:28.260Z,100924.77
2023-05-09T23:36:28.199Z,100918.66
2023-05-09T23:39:28.251Z,100920.86
2023-05-09T23:42:28.214Z,100914.56
2023-05-09T23:45:28.251Z,100914.27
2023-05-09T23:48:28.263Z,100915.39
2023-05-09T23:51:28.222Z,100917.53
2023-05-09T23:54:28.205Z,100911.14
2023-05-09T23:57:29.234Z,100907.44
